sensor_id;sensor_type;location;lat;lon;timestamp;P1;durP1;ratioP1;P2;durP2;ratioP2
32932;SDS011;19444;50.518;10.870;2023-06-19T00:00:34;8.98;;;6.95;;
32932;SDS011;19444;50.518;10.870;2023-06-19T00:03:30;9.75;;;7.57;;
32932;SDS011;19444;50.518;10.870;2023-06-19T00:06:27;8.18;;;6.75;;
32932;SDS011;19444;50.518;10.870;2023-06-19T00:09:24;10.63;;;6.40;;
32932;SDS011;19444;50.518;10.870;2023-06-19T00:12:21;7.72;;;6.68;;
32932;SDS011;19444;50.518;10.870;2023-06-19T00:15:18;7.95;;;6.88;;
32932;SDS011;19444;50.518;10.870;2023-06-19T00:18:15;9.07;;;7.20;;
32932;SDS011;19444;50.518;10.870;2023-06-19T00:21:14;12.00;;;6.78;;
32932;SDS011;19444;50.518;10.870;2023-06-19T00:24:11;9.07;;;7.45;;
32932;SDS011;19444;50.518;10.870;2023-06-19T00:27:08;10.93;;;6.88;;
32932;SDS011;19444;50.518;10.870;2023-06-19T00:30:05;8.68;;;7.22;;
32932;SDS011;19444;50.518;10.870;2023-06-19T00:33:03;8.20;;;6.53;;
32932;SDS011;19444;50.518;10.870;2023-06-19T00:36:00;8.93;;;6.75;;
32932;SDS011;19444;50.518;10.870;2023-06-19T00:38:57;8.98;;;7.20;;
32932;SDS011;19444;50.518;10.870;2023-06-19T00:41:55;7.20;;;6.50;;
32932;SDS011;19444;50.518;10.870;2023-06-19T00:44:52;8.98;;;7.10;;
32932;SDS011;19444;50.518;10.870;2023-06-19T00:47:49;8.82;;;7.10;;
32932;SDS011;19444;50.518;10.870;2023-06-19T00:50:50;9.38;;;7.53;;
32932;SDS011;19444;50.518;10.870;2023-06-19T00:53:47;8.07;;;6.88;;
32932;SDS011;19444;50.518;10.870;2023-06-19T00:56:44;8.60;;;7.15;;
32932;SDS011;19444;50.518;10.870;2023-06-19T00:59:41;8.48;;;6.85;;
32932;SDS011;19444;50.518;10.870;2023-06-19T01:02:38;8.10;;;7.28;;
32932;SDS011;19444;50.518;10.870;2023-06-19T01:05:36;7.65;;;6.82;;
32932;SDS011;19444;50.518;10.870;2023-06-19T01:08:41;7.68;;;6.18;;
32932;SDS011;19444;50.518;10.870;2023-06-19T01:11:48;8.00;;;6.70;;
32932;SDS011;19444;50.518;10.870;2023-06-19T01:14:53;8.50;;;7.10;;
32932;SDS011;19444;50.518;10.870;2023-06-19T01:17:55;10.25;;;7.43;;
32932;SDS011;19444;50.518;10.870;2023-06-19T01:20:56;10.15;;;7.03;;
32932;SDS011;19444;50.518;10.870;2023-06-19T01:23:53;9.32;;;7.45;;
32932;SDS011;19444;50.518;10.870;2023-06-19T01:26:50;8.98;;;7.47;;
32932;SDS011;19444;50.518;10.870;2023-06-19T01:29:48;10.20;;;7.57;;
32932;SDS011;19444;50.518;10.870;2023-06-19T01:36:01;8.27;;;7.00;;
32932;SDS011;19444;50.518;10.870;2023-06-19T01:39:00;9.45;;;7.07;;
32932;SDS011;19444;50.518;10.870;2023-06-19T01:41:57;7.72;;;6.32;;
32932;SDS011;19444;50.518;10.870;2023-06-19T01:44:55;9.30;;;7.65;;
32932;SDS011;19444;50.518;10.870;2023-06-19T01:47:53;8.85;;;7.30;;
32932;SDS011;19444;50.518;10.870;2023-06-19T01:50:50;8.93;;;7.07;;
32932;SDS011;19444;50.518;10.870;2023-06-19T01:53:47;7.40;;;6.45;;
32932;SDS011;19444;50.518;10.870;2023-06-19T01:56:44;9.90;;;8.10;;
32932;SDS011;19444;50.518;10.870;2023-06-19T01:59:41;8.63;;;7.57;;
32932;SDS011;19444;50.518;10.870;2023-06-19T02:02:38;9.60;;;7.25;;
32932;SDS011;19444;50.518;10.870;2023-06-19T02:05:35;12.32;;;8.18;;
32932;SDS011;19444;50.518;10.870;2023-06-19T02:08:35;8.55;;;7.07;;
32932;SDS011;19444;50.518;10.870;2023-06-19T02:11:32;10.20;;;7.35;;
32932;SDS011;19444;50.518;10.870;2023-06-19T02:14:29;11.45;;;7.90;;
32932;SDS011;19444;50.518;10.870;2023-06-19T02:17:26;10.35;;;7.97;;
32932;SDS011;19444;50.518;10.870;2023-06-19T02:20:23;9.45;;;7.60;;
32932;SDS011;19444;50.518;10.870;2023-06-19T02:23:21;8.40;;;7.03;;
32932;SDS011;19444;50.518;10.870;2023-06-19T02:26:18;8.23;;;6.28;;
32932;SDS011;19444;50.518;10.870;2023-06-19T02:29:15;9.30;;;8.00;;
32932;SDS011;19444;50.518;10.870;2023-06-19T02:32:12;9.00;;;7.05;;
32932;SDS011;19444;50.518;10.870;2023-06-19T02:35:09;9.23;;;7.50;;
32932;SDS011;19444;50.518;10.870;2023-06-19T02:38:08;9.35;;;7.85;;
32932;SDS011;19444;50.518;10.870;2023-06-19T02:41:05;11.50;;;7.95;;
32932;SDS011;19444;50.518;10.870;2023-06-19T02:44:01;9.13;;;6.85;;
32932;SDS011;19444;50.518;10.870;2023-06-19T02:46:58;10.10;;;7.38;;
32932;SDS011;19444;50.518;10.870;2023-06-19T02:49:56;8.35;;;7.15;;
32932;SDS011;19444;50.518;10.870;2023-06-19T02:52:57;10.98;;;7.43;;
32932;SDS011;19444;50.518;10.870;2023-06-19T02:55:54;10.15;;;7.43;;
32932;SDS011;19444;50.518;10.870;2023-06-19T02:58:51;10.15;;;8.02;;
32932;SDS011;19444;50.518;10.870;2023-06-19T03:01:48;9.82;;;8.10;;
32932;SDS011;19444;50.518;10.870;2023-06-19T03:04:45;8.38;;;7.47;;
32932;SDS011;19444;50.518;10.870;2023-06-19T03:07:42;8.30;;;7.13;;
32932;SDS011;19444;50.518;10.870;2023-06-19T03:10:39;8.27;;;6.97;;
32932;SDS011;19444;50.518;10.870;2023-06-19T03:13:46;9.55;;;8.02;;
32932;SDS011;19444;50.518;10.870;2023-06-19T03:16:47;8.63;;;7.18;;
32932;SDS011;19444;50.518;10.870;2023-06-19T03:19:44;9.05;;;6.82;;
32932;SDS011;19444;50.518;10.870;2023-06-19T03:22:41;8.63;;;7.32;;
32932;SDS011;19444;50.518;10.870;2023-06-19T03:25:38;8.75;;;6.47;;
32932;SDS011;19444;50.518;10.870;2023-06-19T03:31:35;9.75;;;7.25;;
32932;SDS011;19444;50.518;10.870;2023-06-19T03:34:32;8.52;;;7.63;;
32932;SDS011;19444;50.518;10.870;2023-06-19T03:37:29;8.60;;;6.80;;
32932;SDS011;19444;50.518;10.870;2023-06-19T03:40:28;8.68;;;6.70;;
32932;SDS011;19444;50.518;10.870;2023-06-19T03:43:27;10.98;;;7.40;;
32932;SDS011;19444;50.518;10.870;2023-06-19T03:46:24;9.55;;;8.00;;
32932;SDS011;19444;50.518;10.870;2023-06-19T03:49:21;9.35;;;7.88;;
32932;SDS011;19444;50.518;10.870;2023-06-19T03:52:18;8.68;;;7.78;;
32932;SDS011;19444;50.518;10.870;2023-06-19T03:55:15;9.48;;;8.00;;
32932;SDS011;19444;50.518;10.870;2023-06-19T03:58:12;7.93;;;7.07;;
32932;SDS011;19444;50.518;10.870;2023-06-19T04:01:08;11.63;;;8.07;;
32932;SDS011;19444;50.518;10.870;2023-06-19T04:04:05;8.70;;;7.07;;
32932;SDS011;19444;50.518;10.870;2023-06-19T04:07:03;7.97;;;6.80;;
32932;SDS011;19444;50.518;10.870;2023-06-19T04:10:00;9.05;;;7.57;;
32932;SDS011;19444;50.518;10.870;2023-06-19T04:12:57;9.13;;;7.03;;
32932;SDS011;19444;50.518;10.870;2023-06-19T04:15:54;8.38;;;7.03;;
32932;SDS011;19444;50.518;10.870;2023-06-19T04:18:51;10.90;;;8.57;;
32932;SDS011;19444;50.518;10.870;2023-06-19T04:21:48;11.60;;;7.70;;
32932;SDS011;19444;50.518;10.870;2023-06-19T04:24:45;11.35;;;7.80;;
32932;SDS011;19444;50.518;10.870;2023-06-19T04:27:41;9.68;;;7.45;;
32932;SDS011;19444;50.518;10.870;2023-06-19T04:30:41;8.85;;;7.80;;
32932;SDS011;19444;50.518;10.870;2023-06-19T04:33:39;10.13;;;7.88;;
32932;SDS011;19444;50.518;10.870;2023-06-19T04:36:40;9.23;;;7.82;;
32932;SDS011;19444;50.518;10.870;2023-06-19T04:39:37;9.93;;;7.78;;
32932;SDS011;19444;50.518;10.870;2023-06-19T04:42:34;11.00;;;7.75;;
32932;SDS011;19444;50.518;10.870;2023-06-19T04:45:31;9.68;;;8.13;;
32932;SDS011;19444;50.518;10.870;2023-06-19T04:48:28;9.82;;;7.63;;
32932;SDS011;19444;50.518;10.870;2023-06-19T04:51:25;9.63;;;7.80;;
32932;SDS011;19444;50.518;10.870;2023-06-19T04:54:22;9.57;;;7.35;;
32932;SDS011;19444;50.518;10.870;2023-06-19T04:57:23;11.20;;;7.95;;
32932;SDS011;19444;50.518;10.870;2023-06-19T05:00:20;11.55;;;8.80;;
32932;SDS011;19444;50.518;10.870;2023-06-19T05:03:20;9.20;;;8.20;;
32932;SDS011;19444;50.518;10.870;2023-06-19T05:06:18;8.80;;;7.80;;
32932;SDS011;19444;50.518;10.870;2023-06-19T05:09:15;10.55;;;8.38;;
32932;SDS011;19444;50.518;10.870;2023-06-19T05:12:12;13.27;;;8.43;;
32932;SDS011;19444;50.518;10.870;2023-06-19T05:15:09;12.95;;;8.40;;
32932;SDS011;19444;50.518;10.870;2023-06-19T05:18:06;13.05;;;10.05;;
32932;SDS011;19444;50.518;10.870;2023-06-19T05:21:03;9.65;;;8.30;;
32932;SDS011;19444;50.518;10.870;2023-06-19T05:24:00;13.77;;;8.20;;
32932;SDS011;19444;50.518;10.870;2023-06-19T05:26:57;22.23;;;9.32;;
32932;SDS011;19444;50.518;10.870;2023-06-19T05:29:54;18.33;;;8.65;;
32932;SDS011;19444;50.518;10.870;2023-06-19T05:32:51;19.48;;;9.77;;
32932;SDS011;19444;50.518;10.870;2023-06-19T05:35:48;11.95;;;8.00;;
32932;SDS011;19444;50.518;10.870;2023-06-19T05:38:48;11.80;;;7.90;;
32932;SDS011;19444;50.518;10.870;2023-06-19T05:41:45;14.40;;;9.70;;
32932;SDS011;19444;50.518;10.870;2023-06-19T05:44:42;10.30;;;7.95;;
32932;SDS011;19444;50.518;10.870;2023-06-19T05:47:40;9.68;;;6.57;;
32932;SDS011;19444;50.518;10.870;2023-06-19T05:50:37;18.00;;;7.63;;
32932;SDS011;19444;50.518;10.870;2023-06-19T05:53:34;11.23;;;7.35;;
32932;SDS011;19444;50.518;10.870;2023-06-19T05:56:31;12.45;;;7.32;;
32932;SDS011;19444;50.518;10.870;2023-06-19T05:59:29;19.10;;;7.50;;
32932;SDS011;19444;50.518;10.870;2023-06-19T06:02:26;24.27;;;8.30;;
32932;SDS011;19444;50.518;10.870;2023-06-19T06:05:25;14.65;;;7.05;;
32932;SDS011;19444;50.518;10.870;2023-06-19T06:08:22;15.35;;;7.00;;
32932;SDS011;19444;50.518;10.870;2023-06-19T06:11:19;7.88;;;6.85;;
32932;SDS011;19444;50.518;10.870;2023-06-19T06:14:18;9.68;;;6.90;;
32932;SDS011;19444;50.518;10.870;2023-06-19T06:17:15;8.20;;;7.13;;
32932;SDS011;19444;50.518;10.870;2023-06-19T06:20:12;9.20;;;7.38;;
32932;SDS011;19444;50.518;10.870;2023-06-19T06:23:09;8.43;;;7.03;;
32932;SDS011;19444;50.518;10.870;2023-06-19T06:26:06;10.45;;;7.47;;
32932;SDS011;19444;50.518;10.870;2023-06-19T06:29:03;8.80;;;7.30;;
32932;SDS011;19444;50.518;10.870;2023-06-19T06:32:06;8.73;;;7.20;;
32932;SDS011;19444;50.518;10.870;2023-06-19T06:35:05;9.48;;;7.18;;
32932;SDS011;19444;50.518;10.870;2023-06-19T06:38:03;8.15;;;7.10;;
32932;SDS011;19444;50.518;10.870;2023-06-19T06:41:00;9.10;;;7.50;;
32932;SDS011;19444;50.518;10.870;2023-06-19T06:43:57;8.65;;;7.57;;
32932;SDS011;19444;50.518;10.870;2023-06-19T06:46:54;8.85;;;7.47;;
32932;SDS011;19444;50.518;10.870;2023-06-19T06:49:51;10.98;;;7.68;;
32932;SDS011;19444;50.518;10.870;2023-06-19T06:52:48;9.10;;;7.63;;
32932;SDS011;19444;50.518;10.870;2023-06-19T06:55:45;9.60;;;7.55;;
32932;SDS011;19444;50.518;10.870;2023-06-19T06:58:42;9.98;;;8.80;;
32932;SDS011;19444;50.518;10.870;2023-06-19T07:01:42;8.37;;;7.40;;
32932;SDS011;19444;50.518;10.870;2023-06-19T07:04:39;9.77;;;7.95;;
32932;SDS011;19444;50.518;10.870;2023-06-19T07:07:36;11.65;;;7.90;;
32932;SDS011;19444;50.518;10.870;2023-06-19T07:10:33;9.32;;;7.43;;
32932;SDS011;19444;50.518;10.870;2023-06-19T07:13:30;8.65;;;7.60;;
32932;SDS011;19444;50.518;10.870;2023-06-19T07:16:27;10.98;;;8.05;;
32932;SDS011;19444;50.518;10.870;2023-06-19T07:19:24;9.45;;;8.45;;
32932;SDS011;19444;50.518;10.870;2023-06-19T07:22:21;9.63;;;7.90;;
32932;SDS011;19444;50.518;10.870;2023-06-19T07:25:18;8.63;;;7.70;;
32932;SDS011;19444;50.518;10.870;2023-06-19T07:28:15;9.77;;;8.07;;
32932;SDS011;19444;50.518;10.870;2023-06-19T07:31:12;8.80;;;7.78;;
32932;SDS011;19444;50.518;10.870;2023-06-19T07:34:09;9.65;;;8.20;;
32932;SDS011;19444;50.518;10.870;2023-06-19T07:37:06;10.55;;;8.18;;
32932;SDS011;19444;50.518;10.870;2023-06-19T07:40:03;10.23;;;7.40;;
32932;SDS011;19444;50.518;10.870;2023-06-19T07:43:01;8.90;;;7.53;;
32932;SDS011;19444;50.518;10.870;2023-06-19T07:45:58;7.80;;;6.97;;
32932;SDS011;19444;50.518;10.870;2023-06-19T07:48:55;9.88;;;6.65;;
32932;SDS011;19444;50.518;10.870;2023-06-19T07:51:52;10.88;;;7.18;;
32932;SDS011;19444;50.518;10.870;2023-06-19T07:54:53;8.13;;;7.20;;
32932;SDS011;19444;50.518;10.870;2023-06-19T07:57:51;8.25;;;7.00;;
32932;SDS011;19444;50.518;10.870;2023-06-19T08:00:48;8.45;;;6.95;;
32932;SDS011;19444;50.518;10.870;2023-06-19T08:03:45;7.93;;;7.13;;
32932;SDS011;19444;50.518;10.870;2023-06-19T08:06:42;8.98;;;6.82;;
32932;SDS011;19444;50.518;10.870;2023-06-19T08:09:39;7.60;;;6.18;;
32932;SDS011;19444;50.518;10.870;2023-06-19T08:12:37;7.68;;;6.63;;
32932;SDS011;19444;50.518;10.870;2023-06-19T08:15:33;8.75;;;7.05;;
32932;SDS011;19444;50.518;10.870;2023-06-19T08:18:31;9.38;;;7.00;;
32932;SDS011;19444;50.518;10.870;2023-06-19T08:21:28;6.95;;;6.25;;
32932;SDS011;19444;50.518;10.870;2023-06-19T08:24:25;7.28;;;6.40;;
32932;SDS011;19444;50.518;10.870;2023-06-19T08:27:22;8.93;;;6.43;;
32932;SDS011;19444;50.518;10.870;2023-06-19T08:30:19;8.65;;;6.43;;
32932;SDS011;19444;50.518;10.870;2023-06-19T08:33:15;8.07;;;6.70;;
32932;SDS011;19444;50.518;10.870;2023-06-19T08:36:13;6.78;;;6.07;;
32932;SDS011;19444;50.518;10.870;2023-06-19T08:39:10;8.85;;;6.13;;
32932;SDS011;19444;50.518;10.870;2023-06-19T08:42:08;7.65;;;6.20;;
32932;SDS011;19444;50.518;10.870;2023-06-19T08:45:06;7.18;;;6.20;;
32932;SDS011;19444;50.518;10.870;2023-06-19T08:48:03;7.72;;;6.93;;
32932;SDS011;19444;50.518;10.870;2023-06-19T08:51:00;9.90;;;6.97;;
32932;SDS011;19444;50.518;10.870;2023-06-19T08:54:04;7.68;;;6.30;;
32932;SDS011;19444;50.518;10.870;2023-06-19T08:57:03;8.10;;;7.07;;
32932;SDS011;19444;50.518;10.870;2023-06-19T09:00:00;7.43;;;6.63;;
32932;SDS011;19444;50.518;10.870;2023-06-19T09:03:01;7.78;;;6.97;;
32932;SDS011;19444;50.518;10.870;2023-06-19T09:06:08;8.98;;;6.60;;
32932;SDS011;19444;50.518;10.870;2023-06-19T09:09:06;9.15;;;6.47;;
32932;SDS011;19444;50.518;10.870;2023-06-19T09:12:08;7.30;;;6.28;;
32932;SDS011;19444;50.518;10.870;2023-06-19T09:15:12;7.10;;;6.40;;
32932;SDS011;19444;50.518;10.870;2023-06-19T09:18:11;7.63;;;6.82;;
32932;SDS011;19444;50.518;10.870;2023-06-19T09:21:14;8.75;;;6.78;;
32932;SDS011;19444;50.518;10.870;2023-06-19T09:24:18;7.78;;;6.97;;
32932;SDS011;19444;50.518;10.870;2023-06-19T09:27:16;8.73;;;6.70;;
32932;SDS011;19444;50.518;10.870;2023-06-19T09:30:15;8.90;;;6.88;;
32932;SDS011;19444;50.518;10.870;2023-06-19T09:33:12;7.47;;;5.88;;
32932;SDS011;19444;50.518;10.870;2023-06-19T09:39:13;8.43;;;6.93;;
32932;SDS011;19444;50.518;10.870;2023-06-19T09:42:13;8.50;;;6.78;;
32932;SDS011;19444;50.518;10.870;2023-06-19T09:45:13;7.57;;;6.88;;
32932;SDS011;19444;50.518;10.870;2023-06-19T09:48:15;6.80;;;5.97;;
32932;SDS011;19444;50.518;10.870;2023-06-19T09:54:16;5.55;;;4.90;;
32932;SDS011;19444;50.518;10.870;2023-06-19T09:57:13;5.80;;;5.20;;
32932;SDS011;19444;50.518;10.870;2023-06-19T10:00:10;7.20;;;6.45;;
32932;SDS011;19444;50.518;10.870;2023-06-19T10:06:13;5.63;;;5.03;;
32932;SDS011;19444;50.518;10.870;2023-06-19T10:09:16;8.82;;;5.80;;
32932;SDS011;19444;50.518;10.870;2023-06-19T10:12:17;6.40;;;5.80;;
32932;SDS011;19444;50.518;10.870;2023-06-19T10:15:18;7.07;;;5.80;;
32932;SDS011;19444;50.518;10.870;2023-06-19T10:18:20;5.20;;;4.70;;
32932;SDS011;19444;50.518;10.870;2023-06-19T10:21:18;5.43;;;4.93;;
32932;SDS011;19444;50.518;10.870;2023-06-19T10:24:17;6.55;;;5.80;;
32932;SDS011;19444;50.518;10.870;2023-06-19T10:30:20;7.03;;;6.32;;
32932;SDS011;19444;50.518;10.870;2023-06-19T10:33:18;6.15;;;5.55;;
32932;SDS011;19444;50.518;10.870;2023-06-19T10:36:15;7.20;;;6.50;;
32932;SDS011;19444;50.518;10.870;2023-06-19T10:39:19;6.82;;;6.15;;
32932;SDS011;19444;50.518;10.870;2023-06-19T10:42:16;7.65;;;6.25;;
32932;SDS011;19444;50.518;10.870;2023-06-19T10:45:14;8.77;;;5.72;;
32932;SDS011;19444;50.518;10.870;2023-06-19T10:48:18;8.15;;;6.40;;
32932;SDS011;19444;50.518;10.870;2023-06-19T10:51:18;7.70;;;5.80;;
32932;SDS011;19444;50.518;10.870;2023-06-19T10:54:16;8.02;;;6.05;;
32932;SDS011;19444;50.518;10.870;2023-06-19T10:57:12;7.93;;;5.78;;
32932;SDS011;19444;50.518;10.870;2023-06-19T11:00:10;8.95;;;5.63;;
32932;SDS011;19444;50.518;10.870;2023-06-19T11:03:11;6.45;;;5.15;;
32932;SDS011;19444;50.518;10.870;2023-06-19T11:06:08;6.50;;;5.32;;
32932;SDS011;19444;50.518;10.870;2023-06-19T11:09:08;5.85;;;5.13;;
32932;SDS011;19444;50.518;10.870;2023-06-19T11:12:06;5.95;;;5.25;;
32932;SDS011;19444;50.518;10.870;2023-06-19T11:15:04;5.60;;;4.90;;
32932;SDS011;19444;50.518;10.870;2023-06-19T11:18:02;6.07;;;5.00;;
32932;SDS011;19444;50.518;10.870;2023-06-19T11:21:01;6.35;;;5.00;;
32932;SDS011;19444;50.518;10.870;2023-06-19T11:23:58;5.00;;;4.38;;
32932;SDS011;19444;50.518;10.870;2023-06-19T11:26:56;5.05;;;4.55;;
32932;SDS011;19444;50.518;10.870;2023-06-19T11:29:58;4.47;;;3.92;;
32932;SDS011;19444;50.518;10.870;2023-06-19T11:32:56;4.85;;;4.35;;
32932;SDS011;19444;50.518;10.870;2023-06-19T11:35:54;5.00;;;4.50;;
32932;SDS011;19444;50.518;10.870;2023-06-19T11:38:55;4.55;;;4.10;;
32932;SDS011;19444;50.518;10.870;2023-06-19T11:41:52;7.50;;;4.07;;
32932;SDS011;19444;50.518;10.870;2023-06-19T11:44:57;5.30;;;4.80;;
32932;SDS011;19444;50.518;10.870;2023-06-19T11:48:04;5.25;;;4.68;;
32932;SDS011;19444;50.518;10.870;2023-06-19T11:51:02;7.45;;;5.55;;
32932;SDS011;19444;50.518;10.870;2023-06-19T11:53:59;6.20;;;4.78;;
32932;SDS011;19444;50.518;10.870;2023-06-19T11:56:56;6.05;;;4.85;;
32932;SDS011;19444;50.518;10.870;2023-06-19T11:59:53;6.65;;;5.18;;
32932;SDS011;19444;50.518;10.870;2023-06-19T12:02:50;5.97;;;5.38;;
32932;SDS011;19444;50.518;10.870;2023-06-19T12:05:48;5.53;;;5.03;;
32932;SDS011;19444;50.518;10.870;2023-06-19T12:08:45;6.07;;;5.20;;
32932;SDS011;19444;50.518;10.870;2023-06-19T12:11:42;8.25;;;5.65;;
32932;SDS011;19444;50.518;10.870;2023-06-19T12:14:39;5.90;;;5.20;;
32932;SDS011;19444;50.518;10.870;2023-06-19T12:17:36;5.47;;;4.97;;
32932;SDS011;19444;50.518;10.870;2023-06-19T12:20:33;7.70;;;5.43;;
32932;SDS011;19444;50.518;10.870;2023-06-19T12:23:30;6.72;;;5.60;;
32932;SDS011;19444;50.518;10.870;2023-06-19T12:26:27;6.85;;;5.20;;
32932;SDS011;19444;50.518;10.870;2023-06-19T12:29:24;7.38;;;5.57;;
32932;SDS011;19444;50.518;10.870;2023-06-19T12:32:22;6.88;;;6.13;;
32932;SDS011;19444;50.518;10.870;2023-06-19T12:35:19;8.05;;;5.93;;
32932;SDS011;19444;50.518;10.870;2023-06-19T12:38:16;6.10;;;5.50;;
32932;SDS011;19444;50.518;10.870;2023-06-19T12:41:14;6.95;;;6.25;;
32932;SDS011;19444;50.518;10.870;2023-06-19T12:44:11;10.38;;;6.32;;
32932;SDS011;19444;50.518;10.870;2023-06-19T12:47:08;9.35;;;6.15;;
32932;SDS011;19444;50.518;10.870;2023-06-19T12:50:06;6.47;;;5.80;;
32932;SDS011;19444;50.518;10.870;2023-06-19T12:53:03;13.07;;;6.60;;
32932;SDS011;19444;50.518;10.870;2023-06-19T12:56:00;8.30;;;6.15;;
32932;SDS011;19444;50.518;10.870;2023-06-19T12:59:04;10.98;;;6.90;;
32932;SDS011;19444;50.518;10.870;2023-06-19T13:02:01;9.65;;;6.55;;
32932;SDS011;19444;50.518;10.870;2023-06-19T13:04:58;6.60;;;6.00;;
32932;SDS011;19444;50.518;10.870;2023-06-19T13:07:55;6.85;;;6.22;;
32932;SDS011;19444;50.518;10.870;2023-06-19T13:10:52;7.85;;;6.38;;
32932;SDS011;19444;50.518;10.870;2023-06-19T13:13:49;7.55;;;6.85;;
32932;SDS011;19444;50.518;10.870;2023-06-19T13:16:46;7.18;;;6.47;;
32932;SDS011;19444;50.518;10.870;2023-06-19T13:19:43;11.38;;;7.70;;
32932;SDS011;19444;50.518;10.870;2023-06-19T13:22:40;9.23;;;6.85;;
32932;SDS011;19444;50.518;10.870;2023-06-19T13:25:37;7.10;;;6.40;;
32932;SDS011;19444;50.518;10.870;2023-06-19T13:28:34;6.75;;;6.05;;
32932;SDS011;19444;50.518;10.870;2023-06-19T13:31:31;9.85;;;6.80;;
32932;SDS011;19444;50.518;10.870;2023-06-19T13:34:28;9.10;;;6.55;;
32932;SDS011;19444;50.518;10.870;2023-06-19T13:37:25;8.95;;;6.05;;
32932;SDS011;19444;50.518;10.870;2023-06-19T13:40:22;7.38;;;6.68;;
32932;SDS011;19444;50.518;10.870;2023-06-19T13:43:20;7.00;;;6.20;;
32932;SDS011;19444;50.518;10.870;2023-06-19T13:46:20;6.73;;;6.00;;
32932;SDS011;19444;50.518;10.870;2023-06-19T13:49:18;6.80;;;5.95;;
32932;SDS011;19444;50.518;10.870;2023-06-19T13:52:15;6.80;;;6.05;;
32932;SDS011;19444;50.518;10.870;2023-06-19T13:55:12;7.93;;;5.88;;
32932;SDS011;19444;50.518;10.870;2023-06-19T13:58:10;8.77;;;6.43;;
32932;SDS011;19444;50.518;10.870;2023-06-19T14:01:07;8.27;;;6.53;;
32932;SDS011;19444;50.518;10.870;2023-06-19T14:04:04;6.90;;;6.18;;
32932;SDS011;19444;50.518;10.870;2023-06-19T14:07:01;6.97;;;6.35;;
32932;SDS011;19444;50.518;10.870;2023-06-19T14:09:59;7.40;;;6.60;;
32932;SDS011;19444;50.518;10.870;2023-06-19T14:12:56;8.18;;;6.03;;
32932;SDS011;19444;50.518;10.870;2023-06-19T14:15:53;7.05;;;5.95;;
32932;SDS011;19444;50.518;10.870;2023-06-19T14:18:50;6.72;;;6.05;;
32932;SDS011;19444;50.518;10.870;2023-06-19T14:21:47;6.95;;;6.13;;
32932;SDS011;19444;50.518;10.870;2023-06-19T14:24:44;8.57;;;5.47;;
32932;SDS011;19444;50.518;10.870;2023-06-19T14:27:41;7.63;;;6.13;;
32932;SDS011;19444;50.518;10.870;2023-06-19T14:30:38;6.10;;;5.50;;
32932;SDS011;19444;50.518;10.870;2023-06-19T14:33:35;6.97;;;6.05;;
32932;SDS011;19444;50.518;10.870;2023-06-19T14:36:34;7.10;;;6.40;;
32932;SDS011;19444;50.518;10.870;2023-06-19T14:39:30;6.13;;;5.53;;
32932;SDS011;19444;50.518;10.870;2023-06-19T14:42:27;6.53;;;5.47;;
32932;SDS011;19444;50.518;10.870;2023-06-19T14:45:24;8.60;;;5.80;;
32932;SDS011;19444;50.518;10.870;2023-06-19T14:48:21;6.72;;;6.07;;
32932;SDS011;19444;50.518;10.870;2023-06-19T14:51:18;5.97;;;5.38;;
32932;SDS011;19444;50.518;10.870;2023-06-19T14:54:15;6.63;;;5.97;;
32932;SDS011;19444;50.518;10.870;2023-06-19T14:57:14;6.18;;;5.57;;
32932;SDS011;19444;50.518;10.870;2023-06-19T15:00:11;8.45;;;5.93;;
32932;SDS011;19444;50.518;10.870;2023-06-19T15:03:08;6.18;;;5.60;;
32932;SDS011;19444;50.518;10.870;2023-06-19T15:06:05;6.53;;;5.68;;
32932;SDS011;19444;50.518;10.870;2023-06-19T15:09:02;6.68;;;5.35;;
32932;SDS011;19444;50.518;10.870;2023-06-19T15:12:00;5.97;;;5.38;;
32932;SDS011;19444;50.518;10.870;2023-06-19T15:14:57;6.78;;;6.00;;
32932;SDS011;19444;50.518;10.870;2023-06-19T15:17:54;7.47;;;6.38;;
32932;SDS011;19444;50.518;10.870;2023-06-19T15:20:51;7.00;;;5.85;;
32932;SDS011;19444;50.518;10.870;2023-06-19T15:23:48;6.93;;;5.47;;
32932;SDS011;19444;50.518;10.870;2023-06-19T15:26:51;6.10;;;5.50;;
32932;SDS011;19444;50.518;10.870;2023-06-19T15:29:48;6.85;;;5.55;;
32932;SDS011;19444;50.518;10.870;2023-06-19T15:32:45;6.47;;;5.85;;
32932;SDS011;19444;50.518;10.870;2023-06-19T15:35:42;5.93;;;5.32;;
32932;SDS011;19444;50.518;10.870;2023-06-19T15:38:38;6.18;;;5.55;;
32932;SDS011;19444;50.518;10.870;2023-06-19T15:41:36;7.00;;;5.80;;
32932;SDS011;19444;50.518;10.870;2023-06-19T15:44:33;7.05;;;5.25;;
32932;SDS011;19444;50.518;10.870;2023-06-19T15:47:29;6.00;;;5.18;;
32932;SDS011;19444;50.518;10.870;2023-06-19T15:50:28;6.30;;;5.20;;
32932;SDS011;19444;50.518;10.870;2023-06-19T15:53:25;6.57;;;5.47;;
32932;SDS011;19444;50.518;10.870;2023-06-19T15:56:22;6.40;;;4.95;;
32932;SDS011;19444;50.518;10.870;2023-06-19T15:59:19;8.27;;;5.55;;
32932;SDS011;19444;50.518;10.870;2023-06-19T16:02:16;7.75;;;5.47;;
32932;SDS011;19444;50.518;10.870;2023-06-19T16:05:13;6.47;;;5.88;;
32932;SDS011;19444;50.518;10.870;2023-06-19T16:08:14;5.95;;;5.00;;
32932;SDS011;19444;50.518;10.870;2023-06-19T16:11:10;6.18;;;5.55;;
32932;SDS011;19444;50.518;10.870;2023-06-19T16:14:08;6.18;;;5.57;;
32932;SDS011;19444;50.518;10.870;2023-06-19T16:17:05;8.50;;;5.50;;
32932;SDS011;19444;50.518;10.870;2023-06-19T16:20:02;7.57;;;6.07;;
32932;SDS011;19444;50.518;10.870;2023-06-19T16:23:00;7.80;;;5.70;;
32932;SDS011;19444;50.518;10.870;2023-06-19T16:25:57;5.97;;;5.38;;
32932;SDS011;19444;50.518;10.870;2023-06-19T16:28:53;8.10;;;5.60;;
32932;SDS011;19444;50.518;10.870;2023-06-19T16:31:50;6.45;;;5.75;;
32932;SDS011;19444;50.518;10.870;2023-06-19T16:35:04;6.65;;;5.97;;
32932;SDS011;19444;50.518;10.870;2023-06-19T16:38:01;5.97;;;5.25;;
32932;SDS011;19444;50.518;10.870;2023-06-19T16:40:58;6.10;;;5.45;;
32932;SDS011;19444;50.518;10.870;2023-06-19T16:43:55;5.32;;;4.82;;
32932;SDS011;19444;50.518;10.870;2023-06-19T16:46:53;7.22;;;5.40;;
32932;SDS011;19444;50.518;10.870;2023-06-19T16:49:50;5.95;;;5.20;;
32932;SDS011;19444;50.518;10.870;2023-06-19T16:52:47;6.45;;;5.45;;
32932;SDS011;19444;50.518;10.870;2023-06-19T16:55:45;5.65;;;5.05;;
32932;SDS011;19444;50.518;10.870;2023-06-19T16:58:42;6.03;;;5.43;;
32932;SDS011;19444;50.518;10.870;2023-06-19T17:01:39;5.78;;;5.15;;
32932;SDS011;19444;50.518;10.870;2023-06-19T17:04:36;6.18;;;5.40;;
32932;SDS011;19444;50.518;10.870;2023-06-19T17:07:35;14.45;;;5.68;;
32932;SDS011;19444;50.518;10.870;2023-06-19T17:10:34;8.13;;;5.53;;
32932;SDS011;19444;50.518;10.870;2023-06-19T17:13:31;6.38;;;5.35;;
32932;SDS011;19444;50.518;10.870;2023-06-19T17:16:28;5.63;;;5.13;;
32932;SDS011;19444;50.518;10.870;2023-06-19T17:19:25;5.90;;;5.22;;
32932;SDS011;19444;50.518;10.870;2023-06-19T17:22:23;5.57;;;4.80;;
32932;SDS011;19444;50.518;10.870;2023-06-19T17:25:20;5.72;;;4.65;;
32932;SDS011;19444;50.518;10.870;2023-06-19T17:28:17;5.45;;;4.95;;
32932;SDS011;19444;50.518;10.870;2023-06-19T17:31:14;6.25;;;5.20;;
32932;SDS011;19444;50.518;10.870;2023-06-19T17:34:10;5.32;;;4.82;;
32932;SDS011;19444;50.518;10.870;2023-06-19T17:37:07;6.45;;;5.53;;
32932;SDS011;19444;50.518;10.870;2023-06-19T17:40:05;5.35;;;4.72;;
32932;SDS011;19444;50.518;10.870;2023-06-19T17:43:04;6.07;;;4.57;;
32932;SDS011;19444;50.518;10.870;2023-06-19T17:46:01;5.35;;;4.72;;
32932;SDS011;19444;50.518;10.870;2023-06-19T17:48:59;8.20;;;4.75;;
32932;SDS011;19444;50.518;10.870;2023-06-19T17:51:55;5.55;;;4.55;;